• Join FlightAware (Why Join?)
  • Login
  • US Flag 
02:21PM EDT


 

Airport Tracker/Info


-or-


 

Live Flight TrackerFlight Track Log ✈ AAL864 ✈ 27-Apr-2012 ✈ MMSD / SJD - KDFW

Flight Track Log - Related Links

Times and Time Zones

All times are in EDT time to prevent confusion due to time zone crossing. See the AAL864 flight status page for this flight to view local times or setup timezone preferences in your user account.

Time Position Orientation Groundspeed Altitude Reporting Facility
EDT Latitude Longitude Course Direction KTS MPH feet Rate Location/Type
05:45PM 23.1752 -109.7025 32° Northeast  Level FlightAware Approximate
05:46PM 23.2551 -109.6116 31° Northeast  Level FlightAware Approximate
05:47PM 23.3491 -109.5382 31° Northeast  Level FlightAware Approximate
05:48PM 23.4427 -109.4640 31° Northeast  Level FlightAware Approximate
05:49PM 23.5388 -109.3939 31° Northeast  Level FlightAware Approximate
05:50PM 23.6328 -109.3202 31° Northeast  Level FlightAware Approximate
05:51PM 23.7263 -109.2456 31° Northeast  Level FlightAware Approximate
05:52PM 23.8197 -109.1709 31° Northeast  Level FlightAware Approximate
05:53PM 23.9119 -109.0945 31° Northeast  Level FlightAware Approximate
05:54PM 24.0053 -109.0196 31° Northeast  Level FlightAware Approximate
05:55PM 24.1000 -108.9467 31° Northeast  Level FlightAware Approximate
05:56PM 24.1933 -108.8715 31° Northeast  Level FlightAware Approximate
05:57PM 24.2819 -108.7901 31° Northeast  Level FlightAware Approximate
05:58PM 24.3775 -108.7196 31° Northeast  Level FlightAware Approximate
05:59PM 24.4685 -108.6413 31° Northeast  Level FlightAware Approximate
06:00PM 24.5608 -108.5647 30° Northeast  Level FlightAware Approximate
06:01PM 24.6538 -108.4888 30° Northeast  Level FlightAware Approximate
06:02PM 24.7467 -108.4128 30° Northeast  Level FlightAware Approximate
06:03PM 24.8396 -108.3368 30° Northeast  Level FlightAware Approximate
06:04PM 24.9325 -108.2606 30° Northeast  Level FlightAware Approximate
06:05PM 25.0254 -108.1842 30° Northeast  Level FlightAware Approximate
06:06PM 25.1181 -108.1078 30° Northeast  Level FlightAware Approximate
06:07PM 25.2149 -108.0377 30° Northeast  Level FlightAware Approximate
06:08PM 25.3076 -107.9609 30° Northeast  Level FlightAware Approximate
06:09PM 25.4001 -107.8840 29° Northeast  Level FlightAware Approximate
06:10PM 25.4927 -107.8070 29° Northeast  Level FlightAware Approximate
06:11PM 25.5852 -107.7298 29° Northeast  Level FlightAware Approximate
06:12PM 25.6776 -107.6525 29° Northeast  Level FlightAware Approximate
06:13PM 25.7701 -107.5751 29° Northeast  Level FlightAware Approximate
06:14PM 25.8624 -107.4976 28° Northeast  Level FlightAware Approximate
06:15PM 25.9548 -107.4200 28° Northeast  Level FlightAware Approximate
06:16PM 26.0471 -107.3422 28° Northeast  Level FlightAware Approximate
06:17PM 26.1393 -107.2644 28° Northeast  Level FlightAware Approximate
06:18PM 26.2315 -107.1863 27° Northeast  Level FlightAware Approximate
06:19PM 26.3237 -107.1082 27° Northeast  Level FlightAware Approximate
06:20PM 26.4158 -107.0300 27° Northeast  Level FlightAware Approximate
06:21PM 26.5079 -106.9516 26° Northeast  Level FlightAware Approximate
06:22PM 26.5999 -106.8731 26° Northeast  Level FlightAware Approximate
06:23PM 26.6919 -106.7945 26° Northeast  Level FlightAware Approximate
06:24PM 26.7869 -106.7206 25° Northeast  Level FlightAware Approximate
06:25PM 26.8739 -106.6350 24° Northeast  Level FlightAware Approximate
06:26PM 26.9608 -106.5493 24° Northeast  Level FlightAware Approximate
06:27PM 27.0477 -106.4634 23° Northeast  Level FlightAware Approximate
06:28PM 27.1346 -106.3775 22° Northeast  Level FlightAware Approximate
06:29PM 27.2213 -106.2913 21° North  Level FlightAware Approximate
06:30PM 27.3081 -106.2051 20° North  Level FlightAware Approximate
06:31PM 27.3948 -106.1187 19° North  Level FlightAware Approximate
06:32PM 27.4814 -106.0322 17° North  Level FlightAware Approximate
06:33PM 27.5680 -105.9455 16° North  Level FlightAware Approximate
06:34PM 27.6545 -105.8587 14° North  Level FlightAware Approximate
06:35PM 27.7410 -105.7717 12° North  Level FlightAware Approximate
06:36PM 27.8274 -105.6847 10° North  Level FlightAware Approximate
06:37PM 27.9137 -105.5974 North  Level FlightAware Approximate
06:38PM 28.0000 -105.5101 North  Level FlightAware Approximate
06:39PM 28.0863 -105.4226 North  Level FlightAware Approximate
06:40PM 28.1725 -105.3350 356° North  Level FlightAware Approximate
06:41PM 28.2598 -105.2395 351° North  Level FlightAware Approximate
06:42PM 28.3470 -105.1438 345° North  Level FlightAware Approximate
06:43PM 28.4342 -105.0480 338° Northwest  Level FlightAware Approximate
06:44PM 28.5213 -104.9520 330° Northwest  Level FlightAware Approximate
06:45PM 28.6083 -104.8559 321° Northwest  Level FlightAware Approximate
06:46PM 29.2156 -105.4111 50° Northeast 435 501 34,900  Level Albuquerque Center
06:47PM 29.3031 -105.2928 48° Northeast 448 516 34,900  Level Albuquerque Center
06:48PM 29.3928 -105.1767 50° Northeast 470 541 34,900  Level Albuquerque Center
06:49PM 29.4819 -105.0556 49° Northeast 486 559 34,900  Level Albuquerque Center
06:50PM 29.5714 -104.9367 49° Northeast 491 565 34,900  Level Albuquerque Center
06:51PM 29.6583 -104.8200 51° Northeast 491 565 34,900  Level Albuquerque Center
06:52PM 29.7433 -104.6983 67° East 491 565 34,900  Level Albuquerque Center
06:53PM 29.7961 -104.5536 67° East 491 565 34,900  Level Albuquerque Center
06:54PM 29.8508 -104.4039 66° East 486 559 34,900  Level Albuquerque Center
06:55PM 29.9075 -104.2564 66° East 496 571 34,900  Level Albuquerque Center
06:56PM 29.9622 -104.1133 66° East 496 571 34,900  Level Albuquerque Center
06:57PM 30.0183 -103.9656 66° East 496 571 34,900  Level Albuquerque Center
06:58PM 30.0747 -103.8197 66° East 496 571 34,900  Level Albuquerque Center
06:59PM 30.1286 -103.6786 66° East 491 565 34,900  Level Albuquerque Center
07:00PM 30.1844 -103.5303 68° East 485 558 34,900  Level Albuquerque Center
07:01PM 30.2358 -103.3817 66° East 490 564 34,900  Level Albuquerque Center
07:02PM 30.2914 -103.2353 66° East 490 564 34,900  Level Albuquerque Center
07:03PM 30.3486 -103.0861 66° East 495 570 34,900  Level Albuquerque Center
07:04PM 30.4039 -102.9394 67° East 495 570 34,900  Level Albuquerque Center
07:05PM 30.4806 -102.7314 66° East 503 579 34,900  Level Houston Center
07:06PM 30.5367 -102.5814 67° East 508 585 34,900  Level Houston Center
07:07PM 30.5925 -102.4308 67° East 508 585 34,900  Level Houston Center
07:12PM 30.8814 -101.6367 67° East 527 606 34,900  Level Fort Worth Center
07:13PM 30.9364 -101.4889 68° East 512 589 35,000  Climbing Fort Worth Center
07:14PM 30.9894 -101.3336 67° East 512 589 35,000 -60 Level Fort Worth Center
07:15PM 31.0442 -101.1833 66° East 517 595 34,900 -60 Descending Fort Worth Center
07:16PM 31.0961 -101.0447 68° East 511 588 34,900  Level Fort Worth Center
07:17PM 31.1486 -100.8889 68° East 516 594 34,900  Level Fort Worth Center
07:18PM 31.2028 -100.7356 68° East 521 600 34,900  Level Fort Worth Center
07:19PM 31.2569 -100.5819 68° East 515 593 34,900  Level Fort Worth Center
07:20PM 31.3108 -100.4283 67° East 510 587 34,900  Level Fort Worth Center
07:21PM 31.3644 -100.2767 69° East 504 580 34,900  Level Fort Worth Center
07:22PM 31.4158 -100.1225 69° East 504 580 34,900  Level Fort Worth Center
07:23PM 31.4650 -99.9681 69° East 509 586 35,000  Climbing Fort Worth Center
07:24PM 31.5161 -99.8136 68° East 509 586 35,000  Level Fort Worth Center
07:25PM 31.5689 -99.6589 67° East 509 586 35,000  Level Fort Worth Center
07:26PM 31.6217 -99.5114 67° East 503 579 35,000  Level Fort Worth Center
07:27PM 31.6764 -99.3589 64° Northeast 503 579 35,000  Level Fort Worth Center
07:28PM 31.7369 -99.2136 66° East 497 572 35,000  Level Fort Worth Center
07:29PM 31.7953 -99.0583 64° Northeast 503 579 35,000 -540 Level Fort Worth Center
07:30PM 31.8558 -98.9103 66° East 503 579 34,000 -1,560 Descending Fort Worth Center
07:31PM 31.9139 -98.7594 65° Northeast 503 579 31,900 -2,400 Descending Fort Worth Center
07:32PM 31.9717 -98.6158 66° East 494 568 29,300 -2,580 Descending Fort Worth Center
07:33PM 32.0250 -98.4769 66° East 483 556 26,800 -2,400 Descending Fort Worth Center
07:34PM 32.0806 -98.3281 64° Northeast 478 550 24,500 -2,460 Descending Fort Worth Center
07:35PM 32.1442 -98.1739 66° East 477 549 21,900 -2,580 Descending Fort Worth Center
07:36PM 32.1972 -98.0344 65° Northeast 467 537 19,400 -2,640 Descending Fort Worth Center
07:37PM 32.2478 -97.9047 64° Northeast 455 524 16,700 -2,460 Descending Fort Worth Center
07:38PM 32.2708 -97.8481 67° East 422 486 15,700 -2,160 Descending FAA TRACON SMA TRACON (SMA)
07:38PM 32.3022 -97.7614 65° Northeast 412 474 14,200 -2,160 Descending FAA TRACON SMA TRACON (SMA)
07:39PM 32.3347 -97.6794 49° Northeast 396 456 12,800 -1,920 Descending FAA TRACON SMA TRACON (SMA)
07:40PM 32.4053 -97.5847 46° Northeast 378 435 11,000 -960 Descending FAA TRACON SMA TRACON (SMA)
07:41PM 32.4744 -97.5011 45° Northeast 348 400 10,900 -60 Descending FAA TRACON SMA TRACON (SMA)
07:42PM 32.5217 -97.4442 46° Northeast 349 402 10,900  Level FAA TRACON SMA TRACON (SMA)
07:42PM 32.5633 -97.3928 45° Northeast 350 403 10,900  Level FAA TRACON SMA TRACON (SMA)
07:43PM 32.6106 -97.3367 46° Northeast 348 400 10,900  Level FAA TRACON SMA TRACON (SMA)
07:44PM 32.6578 -97.2794 45° Northeast 350 403 10,900  Level FAA TRACON SMA TRACON (SMA)
07:45PM 32.7403 -97.1800 North 300 345 10,900 -180 Level FAA TRACON SMA TRACON (SMA)
07:46PM 32.8164 -97.1742 North 282 325 10,500 -1,080 Descending FAA TRACON SMA TRACON (SMA)
07:47PM 32.8714 -97.1714 North 286 329 9,100 -2,040 Descending FAA TRACON SMA TRACON (SMA)
07:47PM 32.9219 -97.1694 North 292 336 7,800 -1,140 Descending FAA TRACON SMA TRACON (SMA)
07:49PM 32.9736 -97.1672 North 264 304 6,900 -1,920 Descending FAA TRACON SMA TRACON (SMA)
07:49PM 33.0667 -97.1561 62° Northeast 264 304 4,000 -2,580 Descending FAA TRACON SMA TRACON (SMA)
07:50PM 33.0864 -97.1114 88° East 231 266 3,300 -780 Descending FAA TRACON SMA TRACON (SMA)
07:51PM 33.0878 -97.0664 155° Southeast 195 224 3,000 -360 Descending FAA TRACON SMA TRACON (SMA)
07:51PM 33.0658 -97.0542 155° Southeast 169 194 2,900 -180 Descending FAA TRACON SMA TRACON (SMA)